Time,TemperatureF,DewpointF,PressureIn,WindDirection,WindDirectionDegrees,WindSpeedMPH,WindSpeedGustMPH,Humidity,HourlyPrecipIn,Conditions,Clouds,dailyrainin,SoftwareType,DateUTC
2014-01-21 00:14:00,46.5,38.0,30.21,NNE,22,8.0,-999.0,71,-99.99,,,0.00,weatherlink.com 1.10,2014-01-21 08:14:00,
2014-01-21 00:29:00,46.4,37.0,30.20,South,178,6.0,-999.0,71,-99.99,,,0.00,weatherlink.com 1.10,2014-01-21 08:29:00,
2014-01-21 00:44:00,46.5,38.0,30.20,South,171,1.0,-999.0,71,-99.99,,,0.00,weatherlink.com 1.10,2014-01-21 08:44:00,
2014-01-21 00:59:00,45.8,37.0,30.20,South,169,5.0,-999.0,72,-99.99,,,0.00,weatherlink.com 1.10,2014-01-21 08:59:00,
2014-01-21 01:14:00,45.0,37.0,30.19,South,175,2.0,-999.0,74,-99.99,,,0.00,weatherlink.com 1.10,2014-01-21 09:14:00,
2014-01-21 01:29:00,44.8,37.0,30.21,South,188,3.0,-999.0,75,-99.99,,,0.00,weatherlink.com 1.10,2014-01-21 09:29:00,
2014-01-21 01:45:00,44.8,37.0,30.22,South,186,1.0,-999.0,75,-99.99,,,0.00,weatherlink.com 1.10,2014-01-21 09:45:00,
2014-01-21 02:00:00,44.2,37.0,30.23,SSE,153,5.0,-999.0,76,-99.99,,,0.00,weatherlink.com 1.10,2014-01-21 10:00:00,
2014-01-21 02:15:00,44.7,38.0,30.23,SSE,161,5.0,-999.0,76,-99.99,,,0.00,weatherlink.com 1.10,2014-01-21 10:15:00,
2014-01-21 02:30:00,45.7,38.0,30.23,North,355,2.0,-999.0,75,-99.99,,,0.00,weatherlink.com 1.10,2014-01-21 10:30:00,
2014-01-21 02:45:00,46.5,39.0,30.23,ENE,60,7.0,-999.0,74,-99.99,,,0.00,weatherlink.com 1.10,2014-01-21 10:45:00,
2014-01-21 03:00:00,46.9,39.0,30.23,East,97,4.0,-999.0,73,-99.99,,,0.00,weatherlink.com 1.10,2014-01-21 11:00:00,
2014-01-21 03:16:00,46.3,38.0,30.23,SE,137,6.0,-999.0,74,-99.99,,,0.00,weatherlink.com 1.10,2014-01-21 11:16:00,
2014-01-21 03:30:00,46.0,39.0,30.23,East,101,0.0,-999.0,75,-99.99,,,0.00,weatherlink.com 1.10,2014-01-21 11:30:00,
2014-01-21 03:45:00,46.4,39.0,30.22,SSW,209,4.0,-999.0,75,-99.99,,,0.00,weatherlink.com 1.10,2014-01-21 11:45:00,
2014-01-21 04:00:00,46.1,39.0,30.22,NNE,20,1.0,-999.0,75,-99.99,,,0.00,weatherlink.com 1.10,2014-01-21 12:00:00,
2014-01-21 04:16:00,45.8,38.0,30.23,SE,141,1.0,-999.0,75,-99.99,,,0.00,weatherlink.com 1.10,2014-01-21 12:16:00,
2014-01-21 04:31:00,45.2,38.0,30.23,SSE,166,6.0,-999.0,76,-99.99,,,0.00,weatherlink.com 1.10,2014-01-21 12:31:00,
2014-01-21 04:46:00,44.9,38.0,30.23,South,171,1.0,-999.0,77,-99.99,,,0.00,weatherlink.com 1.10,2014-01-21 12:46:00,
2014-01-21 05:01:00,44.5,38.0,30.24,ESE,117,2.0,-999.0,78,-99.99,,,0.00,weatherlink.com 1.10,2014-01-21 13:01:00,
2014-01-21 05:16:00,43.9,37.0,30.24,South,175,4.0,-999.0,78,-99.99,,,0.00,weatherlink.com 1.10,2014-01-21 13:16:00,
2014-01-21 05:31:00,43.3,37.0,30.24,South,177,4.0,-999.0,79,-99.99,,,0.00,weatherlink.com 1.10,2014-01-21 13:31:00,
2014-01-21 05:46:00,42.8,37.0,30.24,SE,139,0.0,-999.0,80,-99.99,,,0.00,weatherlink.com 1.10,2014-01-21 13:46:00,
2014-01-21 06:01:00,42.5,37.0,30.25,South,175,4.0,-999.0,81,-99.99,,,0.00,weatherlink.com 1.10,2014-01-21 14:01:00,
2014-01-21 06:16:00,41.8,37.0,30.25,SSE,167,4.0,-999.0,82,-99.99,,,0.00,weatherlink.com 1.10,2014-01-21 14:16:00,
2014-01-21 06:31:00,40.9,36.0,30.26,SE,134,4.0,-999.0,84,-99.99,,,0.00,weatherlink.com 1.10,2014-01-21 14:31:00,
2014-01-21 06:46:00,40.0,36.0,30.26,South,177,7.0,-999.0,85,-99.99,,,0.00,weatherlink.com 1.10,2014-01-21 14:46:00,
2014-01-21 07:02:00,39.1,35.0,30.26,SSE,167,4.0,-999.0,86,-99.99,,,0.00,weatherlink.com 1.10,2014-01-21 15:02:00,
2014-01-21 07:17:00,38.7,36.0,30.25,South,176,5.0,-999.0,88,-99.99,,,0.00,weatherlink.com 1.10,2014-01-21 15:17:00,
2014-01-21 07:32:00,39.4,36.0,30.27,SE,144,1.0,-999.0,88,-99.99,,,0.00,weatherlink.com 1.10,2014-01-21 15:32:00,
2014-01-21 07:47:00,38.9,36.0,30.27,SSE,153,4.0,-999.0,88,-99.99,,,0.00,weatherlink.com 1.10,2014-01-21 15:47:00,
2014-01-21 08:02:00,38.5,36.0,30.25,South,180,5.0,-999.0,89,-99.99,,,0.00,weatherlink.com 1.10,2014-01-21 16:02:00,
2014-01-21 08:17:00,40.1,37.0,30.25,West,266,1.0,-999.0,89,-99.99,,,0.00,weatherlink.com 1.10,2014-01-21 16:17:00,
2014-01-21 08:32:00,40.7,37.0,30.28,SSE,157,5.0,-999.0,87,-99.99,,,0.00,weatherlink.com 1.10,2014-01-21 16:32:00,
2014-01-21 08:47:00,40.7,37.0,30.29,SSE,166,0.0,-999.0,87,-99.99,,,0.00,weatherlink.com 1.10,2014-01-21 16:47:00,
2014-01-21 09:02:00,40.8,37.0,30.30,South,184,0.0,-999.0,87,-99.99,,,0.00,weatherlink.com 1.10,2014-01-21 17:02:00,
2014-01-21 09:17:00,41.2,38.0,30.31,South,184,0.0,-999.0,87,-99.99,,,0.00,weatherlink.com 1.10,2014-01-21 17:17:00,
2014-01-21 09:33:00,42.7,39.0,30.31,South,174,1.0,-999.0,86,-99.99,,,0.00,weatherlink.com 1.10,2014-01-21 17:33:00,
2014-01-21 09:48:00,43.9,39.0,30.32,SSE,168,5.0,-999.0,83,-99.99,,,0.00,weatherlink.com 1.10,2014-01-21 17:48:00,
2014-01-21 10:03:00,44.4,40.0,30.33,SSE,167,2.0,-999.0,84,-99.99,,,0.00,weatherlink.com 1.10,2014-01-21 18:03:00,
2014-01-21 10:18:00,44.8,41.0,30.34,SSW,200,0.0,-999.0,86,-99.99,,,0.00,weatherlink.com 1.10,2014-01-21 18:18:00,
2014-01-21 10:33:00,44.9,41.0,30.34,South,177,0.0,-999.0,87,-99.99,,,0.00,weatherlink.com 1.10,2014-01-21 18:33:00,
2014-01-21 10:48:00,45.2,42.0,30.34,South,177,0.0,-999.0,89,-99.99,,,0.00,weatherlink.com 1.10,2014-01-21 18:48:00,
2014-01-21 11:03:00,45.3,42.0,30.34,South,177,1.0,-999.0,89,-99.99,,,0.00,weatherlink.com 1.10,2014-01-21 19:03:00,
2014-01-21 11:18:00,45.3,43.0,30.34,South,177,0.0,-999.0,90,-99.99,,,0.00,weatherlink.com 1.10,2014-01-21 19:18:00,
2014-01-21 11:33:00,45.5,43.0,30.34,SE,145,0.0,-999.0,90,-99.99,,,0.00,weatherlink.com 1.10,2014-01-21 19:33:00,
2014-01-21 11:48:00,45.7,43.0,30.32,SE,139,5.0,-999.0,91,-99.99,,,0.00,weatherlink.com 1.10,2014-01-21 19:48:00,
2014-01-21 12:03:00,45.8,43.0,30.32,SSE,155,5.0,-999.0,91,-99.99,,,0.00,weatherlink.com 1.10,2014-01-21 20:03:00,
2014-01-21 12:19:00,45.8,43.0,30.32,SSE,158,2.0,-999.0,91,-99.99,,,0.00,weatherlink.com 1.10,2014-01-21 20:19:00,
2014-01-21 12:34:00,46.2,44.0,30.30,ESE,121,6.0,-999.0,91,-99.99,,,0.00,weatherlink.com 1.10,2014-01-21 20:34:00,
2014-01-21 13:04:00,46.5,44.0,30.27,SSE,163,2.0,-999.0,90,-99.99,,,0.00,weatherlink.com 1.10,2014-01-21 21:04:00,
2014-01-21 13:19:00,47.5,45.0,30.27,SSE,160,7.0,-999.0,89,-99.99,,,0.00,weatherlink.com 1.10,2014-01-21 21:19:00,
2014-01-21 13:34:00,48.6,45.0,30.27,South,177,5.0,-999.0,87,-99.99,,,0.00,weatherlink.com 1.10,2014-01-21 21:34:00,
2014-01-21 13:49:00,48.7,45.0,30.27,SSE,163,4.0,-999.0,86,-99.99,,,0.00,weatherlink.com 1.10,2014-01-21 21:49:00,
2014-01-21 14:04:00,49.1,45.0,30.27,South,169,1.0,-999.0,85,-99.99,,,0.00,weatherlink.com 1.10,2014-01-21 22:04:00,
2014-01-21 14:19:00,49.5,45.0,30.28,South,179,2.0,-999.0,84,-99.99,,,0.00,weatherlink.com 1.10,2014-01-21 22:19:00,
2014-01-21 14:34:00,48.6,44.0,30.30,WNW,294,4.0,-999.0,84,-99.99,,,0.00,weatherlink.com 1.10,2014-01-21 22:34:00,
2014-01-21 14:49:00,47.8,44.0,30.30,SW,235,9.0,-999.0,86,-99.99,,,0.00,weatherlink.com 1.10,2014-01-21 22:49:00,
2014-01-21 15:04:00,47.4,43.0,30.30,WSW,239,6.0,-999.0,86,-99.99,,,0.00,weatherlink.com 1.10,2014-01-21 23:04:00,
2014-01-21 15:19:00,47.0,43.0,30.30,West,280,2.0,-999.0,87,-99.99,,,0.00,weatherlink.com 1.10,2014-01-21 23:19:00,
2014-01-21 15:35:00,46.9,44.0,30.31,WNW,292,3.0,-999.0,88,-99.99,,,0.00,weatherlink.com 1.10,2014-01-21 23:35:00,
2014-01-21 15:50:00,46.8,44.0,30.31,WNW,291,5.0,-999.0,88,-99.99,,,0.00,weatherlink.com 1.10,2014-01-21 23:50:00,
2014-01-21 16:05:00,46.7,44.0,30.32,WNW,303,4.0,-999.0,89,-99.99,,,0.00,weatherlink.com 1.10,2014-01-22 00:05:00,
2014-01-21 16:20:00,46.7,44.0,30.32,WNW,302,0.0,-999.0,90,-99.99,,,0.00,weatherlink.com 1.10,2014-01-22 00:20:00,
2014-01-21 16:35:00,46.7,44.0,30.33,NW,304,1.0,-999.0,90,-99.99,,,0.00,weatherlink.com 1.10,2014-01-22 00:35:00,
2014-01-21 16:50:00,46.6,44.0,30.34,WNW,303,1.0,-999.0,90,-99.99,,,0.00,weatherlink.com 1.10,2014-01-22 00:50:00,
2014-01-21 17:05:00,46.5,44.0,30.33,WNW,303,0.0,-999.0,90,-99.99,,,0.00,weatherlink.com 1.10,2014-01-22 01:05:00,
2014-01-21 17:20:00,46.2,44.0,30.34,WNW,303,1.0,-999.0,90,-99.99,,,0.00,weatherlink.com 1.10,2014-01-22 01:20:00,
2014-01-21 17:35:00,46.1,43.0,30.34,WNW,303,0.0,-999.0,90,-99.99,,,0.00,weatherlink.com 1.10,2014-01-22 01:35:00,
2014-01-21 18:05:00,45.8,43.0,30.33,WNW,303,0.0,-999.0,91,-99.99,,,0.00,weatherlink.com 1.10,2014-01-22 02:05:00,
2014-01-21 18:20:00,45.5,43.0,30.32,WNW,303,0.0,-999.0,91,-99.99,,,0.00,weatherlink.com 1.10,2014-01-22 02:20:00,
2014-01-21 18:36:00,45.3,43.0,30.32,WNW,303,0.0,-999.0,91,-99.99,,,0.00,weatherlink.com 1.10,2014-01-22 02:36:00,
2014-01-21 18:51:00,45.3,43.0,30.33,SW,217,0.0,-999.0,92,-99.99,,,0.00,weatherlink.com 1.10,2014-01-22 02:51:00,
2014-01-21 19:06:00,45.4,43.0,30.33,SW,217,0.0,-999.0,91,-99.99,,,0.00,weatherlink.com 1.10,2014-01-22 03:06:00,
2014-01-21 19:21:00,45.2,43.0,30.33,SW,216,0.0,-999.0,91,-99.99,,,0.00,weatherlink.com 1.10,2014-01-22 03:21:00,
2014-01-21 19:36:00,45.0,43.0,30.32,SW,215,0.0,-999.0,91,-99.99,,,0.00,weatherlink.com 1.10,2014-01-22 03:36:00,
2014-01-21 19:51:00,44.9,43.0,30.32,SW,215,0.0,-999.0,91,-99.99,,,0.00,weatherlink.com 1.10,2014-01-22 03:51:00,
2014-01-21 20:06:00,45.0,43.0,30.32,SW,215,1.0,-999.0,92,-99.99,,,0.00,weatherlink.com 1.10,2014-01-22 04:06:00,
2014-01-21 20:21:00,45.2,43.0,30.32,West,279,2.0,-999.0,91,-99.99,,,0.00,weatherlink.com 1.10,2014-01-22 04:21:00,
2014-01-21 20:36:00,45.4,43.0,30.33,West,259,1.0,-999.0,91,-99.99,,,0.00,weatherlink.com 1.10,2014-01-22 04:36:00,
2014-01-21 20:51:00,45.5,43.0,30.33,WSW,257,0.0,-999.0,91,-99.99,,,0.00,weatherlink.com 1.10,2014-01-22 04:51:00,
2014-01-21 21:06:00,45.5,43.0,30.32,WSW,257,0.0,-999.0,90,-99.99,,,0.00,weatherlink.com 1.10,2014-01-22 05:06:00,
2014-01-21 21:21:00,45.6,43.0,30.33,SW,231,1.0,-999.0,90,-99.99,,,0.00,weatherlink.com 1.10,2014-01-22 05:21:00,
2014-01-21 21:36:00,46.0,44.0,30.33,East,80,0.0,-999.0,91,-99.99,,,0.00,weatherlink.com 1.10,2014-01-22 05:36:00,
2014-01-21 21:52:00,46.3,44.0,30.34,SSW,195,1.0,-999.0,90,-99.99,,,0.00,weatherlink.com 1.10,2014-01-22 05:52:00,
2014-01-21 22:07:00,46.3,44.0,30.34,SSW,195,0.0,-999.0,90,-99.99,,,0.00,weatherlink.com 1.10,2014-01-22 06:07:00,
2014-01-21 22:22:00,46.3,44.0,30.34,SSW,192,0.0,-999.0,90,-99.99,,,0.00,weatherlink.com 1.10,2014-01-22 06:22:00,
2014-01-21 22:37:00,46.5,44.0,30.34,ENE,76,0.0,-999.0,89,-99.99,,,0.00,weatherlink.com 1.10,2014-01-22 06:37:00,
2014-01-21 22:52:00,46.7,44.0,30.35,NE,54,0.0,-999.0,89,-99.99,,,0.00,weatherlink.com 1.10,2014-01-22 06:52:00,
2014-01-21 23:07:00,46.7,44.0,30.36,NE,54,0.0,-999.0,89,-99.99,,,0.00,weatherlink.com 1.10,2014-01-22 07:07:00,
2014-01-21 23:22:00,46.5,44.0,30.36,NE,54,0.0,-999.0,90,-99.99,,,0.00,weatherlink.com 1.10,2014-01-22 07:22:00,
2014-01-21 23:37:00,46.4,44.0,30.36,NE,54,0.0,-999.0,90,-99.99,,,0.00,weatherlink.com 1.10,2014-01-22 07:37:00,
2014-01-21 23:52:00,46.3,44.0,30.36,NE,54,0.0,-999.0,91,-99.99,,,0.00,weatherlink.com 1.10,2014-01-22 07:52:00,